createdAt,value
2018-01-25T06:16:43.871Z,66.43
2018-01-25T06:19:10.281Z,64.85
2018-01-25T06:21:37.208Z,55.03
2018-01-25T06:24:04.144Z,61.58
2018-01-25T06:26:31.171Z,58.80
2018-01-25T06:28:57.548Z,61.65
2018-01-25T06:31:24.268Z,57.40
2018-01-25T06:33:51.088Z,60.50
2018-01-25T06:36:17.682Z,53.30
2018-01-25T06:38:44.176Z,55.10
2018-01-25T06:41:10.576Z,55.50
2018-01-25T06:43:37.240Z,73.67
2018-01-25T06:46:03.773Z,71.03
2018-01-25T06:48:30.632Z,79.43
2018-01-25T06:50:57.096Z,79.65
2018-01-25T06:53:23.632Z,76.47
2018-01-25T06:55:50.225Z,82.57
2018-01-25T06:58:16.728Z,78.07
2018-01-25T07:00:43.292Z,103.32
2018-01-25T07:03:10.156Z,106.15
2018-01-25T07:05:36.600Z,95.93
2018-01-25T07:08:03.241Z,81.15
2018-01-25T07:10:29.699Z,96.50
2018-01-25T07:12:56.248Z,96.22
2018-01-25T07:15:22.878Z,94.75
2018-01-25T07:17:49.304Z,97.95
2018-01-25T07:20:15.855Z,99.53
2018-01-25T07:22:42.360Z,100.87
2018-01-25T07:25:08.951Z,97.93
2018-01-25T07:27:35.521Z,109.07
2018-01-25T07:30:01.968Z,115.75
2018-01-25T07:32:28.917Z,272.25
2018-01-25T07:34:55.357Z,387.60
2018-01-25T07:37:21.975Z,340.73
2018-01-25T07:39:48.440Z,184.73
2018-01-25T07:42:14.836Z,142.93
2018-01-25T07:44:41.517Z,153.55
2018-01-25T07:47:08.035Z,311.05
2018-01-25T07:49:34.652Z,174.30
2018-01-25T07:52:01.185Z,163.77
2018-01-25T07:54:27.638Z,170.30
2018-01-25T07:56:54.237Z,189.65
2018-01-25T07:59:20.704Z,139.37
2018-01-25T08:01:47.333Z,135.40
2018-01-25T08:04:14.552Z,127.45
2018-01-25T08:06:41.578Z,125.35
2018-01-25T08:09:08.921Z,126.87
2018-01-25T08:11:35.531Z,132.27
2018-01-25T08:14:02.127Z,124.12
2018-01-25T08:16:34.625Z,123.82
2018-01-25T08:19:02.130Z,132.10
2018-01-25T08:21:29.020Z,126.60
2018-01-25T08:23:55.566Z,125.10
2018-01-25T08:26:22.188Z,124.97
2018-01-25T08:28:48.658Z,117.25
2018-01-25T08:31:15.482Z,115.20
2018-01-25T08:33:42.101Z,113.85
2018-01-25T08:36:09.839Z,105.93
2018-01-25T08:38:36.640Z,110.18
2018-01-25T08:41:04.091Z,111.25
2018-01-25T08:43:30.988Z,113.62
2018-01-25T08:45:57.500Z,110.22
2018-01-25T08:48:24.344Z,108.78
2018-01-25T08:50:50.825Z,112.10
2018-01-25T08:53:17.392Z,111.88
2018-01-25T08:55:43.990Z,114.10
2018-01-25T08:58:11.056Z,119.53
2018-01-25T09:00:37.926Z,116.80
2018-01-25T09:03:04.496Z,122.93
2018-01-25T09:05:31.024Z,118.90
2018-01-25T09:07:57.653Z,118.47
2018-01-25T09:10:24.420Z,119.62
2018-01-25T09:12:50.990Z,120.35
2018-01-25T09:15:17.446Z,121.95
2018-01-25T09:17:43.968Z,115.35
2018-01-25T09:20:10.633Z,119.00
2018-01-25T09:22:37.336Z,117.05
2018-01-25T09:25:04.175Z,110.47
2018-01-25T09:27:30.669Z,108.07
2018-01-25T09:29:57.265Z,106.53
2018-01-25T09:32:23.843Z,105.78
2018-01-25T09:34:50.308Z,102.90
2018-01-25T09:37:16.704Z,106.12
2018-01-25T09:39:43.494Z,113.88
2018-01-25T09:42:09.977Z,116.28
2018-01-25T09:44:36.589Z,114.57
2018-01-25T09:47:03.361Z,114.85
2018-01-25T09:49:29.897Z,115.72
2018-01-25T09:51:56.380Z,115.35
2018-01-25T09:54:23.012Z,109.72
2018-01-25T09:56:49.517Z,110.37
2018-01-25T09:59:16.040Z,110.35
2018-01-25T10:01:42.962Z,109.78
2018-01-25T10:04:09.849Z,114.82
2018-01-25T10:06:36.631Z,115.28
2018-01-25T10:09:03.960Z,114.88
2018-01-25T10:11:30.552Z,111.97
2018-01-25T10:13:56.992Z,112.62
2018-01-25T10:16:23.881Z,119.25
2018-01-25T10:18:50.423Z,110.75
2018-01-25T10:21:17.021Z,118.40
2018-01-25T10:23:43.433Z,119.68
2018-01-25T10:26:09.997Z,114.55
2018-01-25T10:28:36.565Z,110.90
2018-01-25T10:31:03.412Z,107.45
2018-01-25T10:33:29.971Z,106.72
2018-01-25T10:35:56.455Z,102.45
2018-01-25T10:38:23.370Z,101.68
2018-01-25T10:40:49.840Z,101.95
2018-01-25T10:43:16.370Z,113.37
2018-01-25T10:45:42.916Z,108.97
2018-01-25T10:48:09.756Z,104.70
2018-01-25T10:50:36.274Z,104.65
2018-01-25T10:53:02.827Z,99.93
2018-01-25T10:55:29.493Z,97.50
2018-01-25T10:57:56.237Z,95.03
2018-01-25T11:00:22.667Z,99.62
2018-01-25T11:02:49.368Z,96.35
2018-01-25T11:05:15.780Z,93.00
2018-01-25T11:07:42.316Z,95.15
2018-01-25T11:10:08.912Z,96.35
2018-01-25T11:12:35.392Z,90.47
2018-01-25T11:15:01.953Z,91.15
2018-01-25T11:17:28.551Z,91.87
2018-01-25T11:19:54.984Z,95.85
2018-01-25T11:22:21.972Z,89.85
2018-01-25T11:24:48.996Z,88.22
2018-01-25T11:27:16.448Z,92.65
2018-01-25T11:29:43.036Z,96.55
2018-01-25T11:32:09.528Z,82.47
2018-01-25T11:34:36.109Z,84.85
2018-01-25T11:37:02.966Z,78.05
2018-01-25T11:39:29.434Z,73.70
2018-01-25T11:41:55.983Z,65.55
2018-01-25T11:44:22.564Z,67.15
2018-01-25T11:46:49.092Z,59.83
2018-01-25T11:49:15.670Z,63.45
2018-01-25T11:51:42.091Z,60.75
2018-01-25T11:54:08.704Z,63.58
2018-01-25T11:56:35.227Z,57.60
2018-01-25T11:59:01.791Z,53.72
2018-01-25T12:01:30.011Z,63.55
2018-01-25T12:03:56.689Z,54.63
2018-01-25T12:06:23.542Z,64.20
2018-01-25T12:08:50.016Z,58.10
2018-01-25T12:11:16.701Z,59.97
2018-01-25T12:13:43.671Z,48.85
2018-01-25T12:16:10.291Z,47.17
2018-01-25T12:18:36.786Z,43.83
2018-01-25T12:21:03.271Z,48.53
2018-01-25T12:23:29.942Z,45.92
2018-01-25T12:25:56.356Z,44.97
2018-01-25T12:28:23.536Z,54.53
2018-01-25T12:30:50.424Z,52.35
2018-01-25T12:33:16.880Z,51.90
2018-01-25T12:35:43.460Z,58.78
2018-01-25T12:38:10.024Z,82.37
2018-01-25T12:40:36.478Z,87.85
2018-01-25T12:43:02.899Z,88.10
2018-01-25T12:45:29.877Z,80.95
2018-01-25T12:47:56.760Z,91.32
2018-01-25T12:50:23.248Z,98.32
2018-01-25T12:52:49.808Z,89.07
2018-01-25T12:55:16.332Z,96.50
2018-01-25T12:57:42.847Z,95.75
2018-01-25T13:00:09.468Z,92.47
2018-01-25T13:02:37.536Z,92.68
2018-01-25T13:05:04.388Z,93.55
2018-01-25T13:07:30.904Z,89.50
2018-01-25T13:09:57.693Z,88.37
2018-01-25T13:12:24.244Z,83.07
2018-01-25T13:14:51.087Z,90.40
2018-01-25T13:17:17.956Z,93.30
2018-01-25T13:19:44.775Z,95.85
2018-01-25T13:22:11.344Z,87.50
2018-01-25T13:24:37.941Z,101.10
2018-01-25T13:27:04.372Z,86.93
2018-01-25T13:29:30.762Z,89.25
2018-01-25T13:31:57.432Z,89.35
2018-01-25T13:34:23.969Z,96.50
2018-01-25T13:36:51.140Z,93.62
2018-01-25T13:39:17.544Z,98.05
2018-01-25T13:41:44.260Z,89.18
2018-01-25T13:44:10.785Z,96.45
2018-01-25T13:46:37.608Z,93.82
2018-01-25T13:49:04.706Z,100.87
2018-01-25T13:51:31.249Z,93.22
2018-01-25T13:53:59.101Z,95.25
2018-01-25T13:56:25.564Z,103.60
2018-01-25T13:58:53.022Z,97.15
2018-01-25T14:01:19.940Z,94.62
2018-01-25T14:03:47.231Z,92.10
2018-01-25T14:06:13.833Z,87.90
2018-01-25T14:08:40.363Z,95.62
2018-01-25T14:11:07.232Z,94.20
2018-01-25T14:13:33.776Z,84.22
2018-01-25T14:16:00.287Z,78.53
2018-01-25T14:18:26.910Z,88.45
2018-01-25T14:20:54.337Z,82.43
2018-01-25T14:23:21.140Z,92.35
2018-01-25T14:25:47.652Z,77.82
2018-01-25T14:28:14.251Z,80.32
2018-01-25T14:30:40.732Z,78.75
2018-01-25T14:33:07.569Z,83.03
2018-01-25T14:35:33.950Z,78.32
2018-01-25T14:38:01.300Z,75.78
2018-01-25T14:40:27.812Z,74.18
2018-01-25T14:42:54.347Z,65.75
2018-01-25T14:45:20.989Z,72.95
2018-01-25T14:47:47.747Z,73.72
2018-01-25T14:50:14.259Z,70.07
2018-01-25T14:52:41.111Z,75.78
2018-01-25T14:55:07.647Z,63.38
2018-01-25T14:57:34.139Z,71.97
2018-01-25T15:00:01.003Z,74.85
2018-01-25T15:02:27.539Z,70.57
2018-01-25T15:04:54.076Z,73.82
2018-01-25T15:07:20.589Z,77.82
2018-01-25T15:09:48.051Z,76.87
2018-01-25T15:12:14.976Z,71.62
2018-01-25T15:14:41.500Z,69.20
2018-01-25T15:17:08.017Z,75.35
2018-01-25T15:19:34.573Z,75.00
2018-01-25T15:22:01.029Z,71.65
2018-01-25T15:24:27.592Z,69.65
2018-01-25T15:26:54.104Z,70.32
2018-01-25T15:29:20.516Z,74.18
2018-01-25T15:31:47.293Z,71.25
2018-01-25T15:34:13.768Z,71.95
2018-01-25T15:36:40.341Z,74.30
2018-01-25T15:39:06.836Z,76.68
2018-01-25T15:41:33.708Z,82.70
2018-01-25T15:44:00.888Z,83.15
2018-01-25T15:46:27.990Z,95.32
2018-01-25T15:48:54.493Z,101.62
2018-01-25T15:51:20.993Z,94.87
2018-01-25T15:53:47.588Z,88.60
2018-01-25T15:56:14.068Z,98.78
2018-01-25T15:58:40.611Z,96.30
2018-01-25T16:01:07.152Z,88.50
2018-01-25T16:03:33.740Z,81.63
2018-01-25T16:06:00.308Z,92.43
2018-01-25T16:08:26.769Z,97.95
2018-01-25T16:10:53.611Z,89.90
2018-01-25T16:13:20.128Z,97.60
2018-01-25T16:15:46.643Z,91.70
2018-01-25T16:18:17.040Z,101.28
2018-01-25T16:20:44.916Z,102.47
2018-01-25T16:23:11.600Z,109.75
2018-01-25T16:25:38.021Z,103.30
2018-01-25T16:28:04.404Z,96.28
2018-01-25T16:30:31.422Z,89.37
2018-01-25T16:32:57.942Z,89.70
2018-01-25T16:35:24.472Z,100.78
2018-01-25T16:37:50.869Z,105.32
2018-01-25T16:40:17.604Z,96.90
2018-01-25T16:42:44.019Z,100.87
2018-01-25T16:45:11.572Z,94.22
2018-01-25T16:47:38.060Z,100.80
2018-01-25T16:50:04.630Z,94.30
2018-01-25T16:52:31.136Z,105.53
2018-01-25T16:54:58.668Z,92.60
2018-01-25T16:57:25.163Z,98.85
2018-01-25T16:59:51.717Z,85.90
2018-01-25T17:02:18.188Z,96.78
2018-01-25T17:04:44.789Z,105.32
2018-01-25T17:07:11.345Z,102.75
2018-01-25T17:09:38.408Z,103.87
2018-01-25T17:12:04.957Z,97.35
2018-01-25T17:14:32.481Z,101.03
2018-01-25T17:16:59.048Z,99.97
2018-01-25T17:19:25.540Z,85.50
2018-01-25T17:21:52.088Z,101.70
2018-01-25T17:24:18.567Z,96.70
2018-01-25T17:26:45.076Z,107.28
2018-01-25T17:29:11.663Z,99.82
2018-01-25T17:31:38.235Z,97.97
2018-01-25T17:34:04.680Z,89.05
2018-01-25T17:36:31.232Z,100.55
2018-01-25T17:38:57.748Z,98.75
2018-01-25T17:41:24.320Z,94.93
2018-01-25T17:43:50.881Z,77.70
2018-01-25T17:46:17.404Z,90.00
2018-01-25T17:48:44.251Z,96.75
2018-01-25T17:51:10.734Z,100.50
2018-01-25T17:53:37.277Z,100.70
2018-01-25T17:56:03.832Z,119.13
2018-01-25T17:58:30.641Z,128.20
2018-01-25T18:00:57.061Z,120.13
2018-01-25T18:03:23.849Z,129.00
2018-01-25T18:05:50.577Z,143.65
2018-01-25T18:08:17.408Z,180.50
2018-01-25T18:10:43.939Z,176.50
2018-01-25T18:13:10.552Z,170.75
2018-01-25T18:15:37.040Z,172.07
2018-01-25T18:18:03.474Z,151.68
2018-01-25T18:20:30.112Z,162.23
2018-01-25T18:22:56.935Z,144.23
2018-01-25T18:25:23.448Z,153.15
2018-01-25T18:27:50.064Z,150.80
2018-01-25T18:30:16.512Z,142.15
2018-01-25T18:32:43.099Z,143.85
2018-01-25T18:35:09.604Z,142.52
2018-01-25T18:37:36.188Z,133.02
2018-01-25T18:40:02.721Z,127.68
2018-01-25T18:42:29.213Z,128.40
2018-01-25T18:44:56.519Z,117.62
2018-01-25T18:47:23.523Z,116.12
2018-01-25T18:49:50.040Z,121.62
2018-01-25T18:52:16.898Z,116.22
2018-01-25T18:54:43.468Z,116.03
2018-01-25T18:57:09.995Z,104.35
2018-01-25T18:59:36.847Z,104.90
2018-01-25T19:02:03.671Z,110.07
2018-01-25T19:04:30.461Z,120.25
2018-01-25T19:06:57.073Z,116.57
2018-01-25T19:09:23.580Z,115.40
2018-01-25T19:11:50.128Z,114.20
2018-01-25T19:14:16.677Z,115.95
2018-01-25T19:16:43.169Z,115.40
2018-01-25T19:19:09.704Z,113.68
2018-01-25T19:21:36.212Z,125.72
2018-01-25T19:24:03.006Z,127.18
2018-01-25T19:26:29.649Z,125.68
2018-01-25T19:28:56.167Z,130.15
2018-01-25T19:31:22.716Z,127.80
2018-01-25T19:33:49.164Z,154.57
2018-01-25T19:36:16.108Z,167.20
2018-01-25T19:38:42.531Z,186.75
2018-01-25T19:41:09.112Z,180.35
2018-01-25T19:43:35.700Z,175.98
2018-01-25T19:46:02.505Z,181.25
2018-01-25T19:48:29.934Z,178.45
2018-01-25T19:50:56.551Z,167.87
2018-01-25T19:53:23.073Z,189.87
2018-01-25T19:55:49.559Z,172.25
2018-01-25T19:58:16.100Z,198.90
2018-01-25T20:00:42.610Z,199.52
2018-01-25T20:03:09.220Z,211.48
2018-01-25T20:05:35.726Z,234.30
2018-01-25T20:08:02.331Z,225.80
2018-01-25T20:10:28.813Z,242.52
2018-01-25T20:12:55.291Z,254.73
2018-01-25T20:15:21.884Z,265.62
2018-01-25T20:17:50.510Z,261.25
2018-01-25T20:20:16.983Z,262.48
2018-01-25T20:22:43.660Z,260.38
2018-01-25T20:25:10.159Z,253.77
2018-01-25T20:27:36.721Z,279.35
2018-01-25T20:30:03.146Z,282.48
2018-01-25T20:32:30.979Z,286.65
2018-01-25T20:34:58.288Z,352.75
2018-01-25T20:37:25.031Z,378.77
2018-01-25T20:39:51.476Z,442.00
2018-01-25T20:42:18.440Z,487.33
2018-01-25T20:44:44.867Z,500.20
2018-01-25T20:47:11.474Z,484.90
2018-01-25T20:49:37.967Z,487.85
2018-01-25T20:52:04.774Z,498.37
2018-01-25T20:54:31.377Z,488.30
2018-01-25T20:56:58.152Z,479.90
2018-01-25T20:59:24.798Z,458.55
2018-01-25T21:01:51.227Z,455.27
2018-01-25T21:04:18.053Z,441.20
2018-01-25T21:06:44.633Z,426.52
2018-01-25T21:09:11.119Z,418.63
2018-01-25T21:11:38.676Z,448.85
2018-01-25T21:14:05.162Z,424.38
